Terminal Aerodrome Forecast
Issued by NWS Wilmington, OH

Current Version | Previous Version | Text Only | Print | Product List | Glossary Off
Versions: 1 2 3 4 5 6 7 8 9 10 11 12 13 14 15 16 17 18 19

000
FTUS41 KILN 301100
TAFCMH
TAF
KCMH 301132Z 3012/3112 18007KT P6SM SCT250
     FM301800 21014G20KT P6SM SCT050 SCT150 BKN250
     FM302300 21011KT P6SM VCTS SCT040CB OVC120
     FM310500 20008KT P6SM -SHRA VCTS SCT030CB OVC120
     FM311000 20005KT P6SM -SHRA VCTS OVC025CB=

USA.gov is the U.S. government's official web portal to all federal, state and local government web resources and services.